sensor_id;sensor_type;location;lat;lon;timestamp;temperature;humidity
48328;DHT22;34136;51.022;7.082;2024-03-23T00:54:04;9.10;1.00
48328;DHT22;34136;51.022;7.082;2024-03-23T00:56:50;9.00;1.00
48328;DHT22;34136;51.022;7.082;2024-03-23T00:59:36;9.10;1.00
48328;DHT22;34136;51.022;7.082;2024-03-23T01:02:22;9.10;1.00
48328;DHT22;34136;51.022;7.082;2024-03-23T01:05:09;9.00;1.00
48328;DHT22;34136;51.022;7.082;2024-03-23T01:07:55;9.00;1.00
48328;DHT22;34136;51.022;7.082;2024-03-23T01:10:41;9.00;1.00
48328;DHT22;34136;51.022;7.082;2024-03-23T01:13:27;8.90;1.00
48328;DHT22;34136;51.022;7.082;2024-03-23T01:16:13;8.70;1.00
48328;DHT22;34136;51.022;7.082;2024-03-23T01:18:59;8.60;1.00
48328;DHT22;34136;51.022;7.082;2024-03-23T01:21:45;8.50;1.00
48328;DHT22;34136;51.022;7.082;2024-03-23T01:24:32;8.40;1.00
48328;DHT22;34136;51.022;7.082;2024-03-23T01:27:18;8.30;1.00
48328;DHT22;34136;51.022;7.082;2024-03-23T01:30:04;8.10;1.00
48328;DHT22;34136;51.022;7.082;2024-03-23T01:32:50;8.00;1.00
48328;DHT22;34136;51.022;7.082;2024-03-23T01:35:37;8.10;1.00
48328;DHT22;34136;51.022;7.082;2024-03-23T01:38:23;8.00;1.00
48328;DHT22;34136;51.022;7.082;2024-03-23T01:41:09;8.00;1.00
48328;DHT22;34136;51.022;7.082;2024-03-23T01:43:55;7.90;1.00
48328;DHT22;34136;51.022;7.082;2024-03-23T01:46:41;7.80;1.00
48328;DHT22;34136;51.022;7.082;2024-03-23T01:49:28;7.80;1.00
48328;DHT22;34136;51.022;7.082;2024-03-23T01:52:14;7.80;1.00
48328;DHT22;34136;51.022;7.082;2024-03-23T01:55:00;7.90;1.00
48328;DHT22;34136;51.022;7.082;2024-03-23T01:57:46;7.90;1.00
48328;DHT22;34136;51.022;7.082;2024-03-23T02:00:33;7.80;1.00
48328;DHT22;34136;51.022;7.082;2024-03-23T02:03:28;7.90;1.00
48328;DHT22;34136;51.022;7.082;2024-03-23T02:06:14;7.90;1.00
48328;DHT22;34136;51.022;7.082;2024-03-23T02:09:00;7.90;1.00
48328;DHT22;34136;51.022;7.082;2024-03-23T02:11:46;7.80;1.00
48328;DHT22;34136;51.022;7.082;2024-03-23T02:14:33;7.70;1.00
48328;DHT22;34136;51.022;7.082;2024-03-23T02:17:19;7.60;1.00
48328;DHT22;34136;51.022;7.082;2024-03-23T02:20:05;7.50;1.00
48328;DHT22;34136;51.022;7.082;2024-03-23T02:22:53;7.40;1.00
48328;DHT22;34136;51.022;7.082;2024-03-23T02:25:39;7.30;1.00
48328;DHT22;34136;51.022;7.082;2024-03-23T02:28:25;7.30;1.00
48328;DHT22;34136;51.022;7.082;2024-03-23T02:31:11;7.40;1.00
48328;DHT22;34136;51.022;7.082;2024-03-23T02:33:57;7.40;1.00
48328;DHT22;34136;51.022;7.082;2024-03-23T02:36:43;7.40;1.00
48328;DHT22;34136;51.022;7.082;2024-03-23T02:39:29;7.50;1.00
48328;DHT22;34136;51.022;7.082;2024-03-23T02:42:15;7.60;1.00
48328;DHT22;34136;51.022;7.082;2024-03-23T02:45:05;7.50;1.00
48328;DHT22;34136;51.022;7.082;2024-03-23T02:47:51;7.40;1.00
48328;DHT22;34136;51.022;7.082;2024-03-23T02:50:37;7.40;1.00
48328;DHT22;34136;51.022;7.082;2024-03-23T02:53:23;7.30;1.00
48328;DHT22;34136;51.022;7.082;2024-03-23T02:56:09;7.00;1.00
48328;DHT22;34136;51.022;7.082;2024-03-23T02:58:55;7.00;1.00
48328;DHT22;34136;51.022;7.082;2024-03-23T03:01:41;6.90;1.00
48328;DHT22;34136;51.022;7.082;2024-03-23T03:04:28;7.00;1.00
48328;DHT22;34136;51.022;7.082;2024-03-23T03:07:14;6.90;1.00
48328;DHT22;34136;51.022;7.082;2024-03-23T03:10:00;6.90;1.00
48328;DHT22;34136;51.022;7.082;2024-03-23T03:12:46;6.90;1.00
48328;DHT22;34136;51.022;7.082;2024-03-23T03:15:33;6.90;1.00
48328;DHT22;34136;51.022;7.082;2024-03-23T03:18:19;6.90;1.00
48328;DHT22;34136;51.022;7.082;2024-03-23T03:21:05;6.90;1.00
48328;DHT22;34136;51.022;7.082;2024-03-23T03:23:51;7.00;1.00
48328;DHT22;34136;51.022;7.082;2024-03-23T03:26:37;7.00;1.00
48328;DHT22;34136;51.022;7.082;2024-03-23T03:29:24;7.00;1.00
48328;DHT22;34136;51.022;7.082;2024-03-23T03:32:10;6.90;1.00
48328;DHT22;34136;51.022;7.082;2024-03-23T03:34:56;7.00;1.00
48328;DHT22;34136;51.022;7.082;2024-03-23T03:37:42;7.00;1.00
48328;DHT22;34136;51.022;7.082;2024-03-23T03:40:28;6.90;1.00
48328;DHT22;34136;51.022;7.082;2024-03-23T03:43:14;6.90;1.00
48328;DHT22;34136;51.022;7.082;2024-03-23T03:46:00;7.00;1.00
48328;DHT22;34136;51.022;7.082;2024-03-23T03:48:47;6.90;1.00
48328;DHT22;34136;51.022;7.082;2024-03-23T03:51:33;7.00;1.00
48328;DHT22;34136;51.022;7.082;2024-03-23T03:54:19;7.00;1.00
48328;DHT22;34136;51.022;7.082;2024-03-23T03:57:05;7.00;1.00
48328;DHT22;34136;51.022;7.082;2024-03-23T03:59:51;7.00;1.00
48328;DHT22;34136;51.022;7.082;2024-03-23T04:02:38;7.10;1.00
48328;DHT22;34136;51.022;7.082;2024-03-23T04:05:24;7.10;1.00
48328;DHT22;34136;51.022;7.082;2024-03-23T04:08:10;7.10;1.00
48328;DHT22;34136;51.022;7.082;2024-03-23T04:10:56;7.00;1.00
48328;DHT22;34136;51.022;7.082;2024-03-23T04:13:42;7.10;1.00
48328;DHT22;34136;51.022;7.082;2024-03-23T04:16:29;7.10;1.00
48328;DHT22;34136;51.022;7.082;2024-03-23T04:19:15;7.10;1.00
48328;DHT22;34136;51.022;7.082;2024-03-23T04:22:02;7.20;1.00
48328;DHT22;34136;51.022;7.082;2024-03-23T04:24:47;7.20;1.00
48328;DHT22;34136;51.022;7.082;2024-03-23T04:27:33;7.10;1.00
48328;DHT22;34136;51.022;7.082;2024-03-23T04:30:19;7.20;1.00
48328;DHT22;34136;51.022;7.082;2024-03-23T04:33:05;7.20;1.00
48328;DHT22;34136;51.022;7.082;2024-03-23T04:35:51;7.20;1.00
48328;DHT22;34136;51.022;7.082;2024-03-23T04:38:37;7.10;1.00
48328;DHT22;34136;51.022;7.082;2024-03-23T04:41:24;7.00;1.00
48328;DHT22;34136;51.022;7.082;2024-03-23T04:44:10;7.10;1.00
48328;DHT22;34136;51.022;7.082;2024-03-23T04:47:00;7.10;1.00
48328;DHT22;34136;51.022;7.082;2024-03-23T04:49:46;7.10;1.00
48328;DHT22;34136;51.022;7.082;2024-03-23T04:52:32;6.90;1.00
48328;DHT22;34136;51.022;7.082;2024-03-23T04:55:18;7.00;1.00
48328;DHT22;34136;51.022;7.082;2024-03-23T04:58:04;7.10;1.00
48328;DHT22;34136;51.022;7.082;2024-03-23T05:00:54;7.10;1.00
48328;DHT22;34136;51.022;7.082;2024-03-23T05:03:40;7.20;1.00
48328;DHT22;34136;51.022;7.082;2024-03-23T05:06:26;7.30;1.00
48328;DHT22;34136;51.022;7.082;2024-03-23T05:09:12;7.20;1.00
48328;DHT22;34136;51.022;7.082;2024-03-23T05:12:01;7.20;1.00
48328;DHT22;34136;51.022;7.082;2024-03-23T05:14:47;7.10;1.00
48328;DHT22;34136;51.022;7.082;2024-03-23T05:17:33;7.00;1.00
48328;DHT22;34136;51.022;7.082;2024-03-23T05:20:19;7.00;1.00
48328;DHT22;34136;51.022;7.082;2024-03-23T05:23:05;7.00;1.00
48328;DHT22;34136;51.022;7.082;2024-03-23T05:25:51;6.90;1.00
48328;DHT22;34136;51.022;7.082;2024-03-23T05:28:37;7.00;1.00
48328;DHT22;34136;51.022;7.082;2024-03-23T05:31:24;7.00;1.00
48328;DHT22;34136;51.022;7.082;2024-03-23T05:34:10;7.00;1.00
48328;DHT22;34136;51.022;7.082;2024-03-23T05:36:56;7.00;1.00
48328;DHT22;34136;51.022;7.082;2024-03-23T05:39:42;7.00;1.00
48328;DHT22;34136;51.022;7.082;2024-03-23T05:42:28;7.00;1.00
48328;DHT22;34136;51.022;7.082;2024-03-23T05:45:14;7.00;1.00
48328;DHT22;34136;51.022;7.082;2024-03-23T05:48:00;6.90;1.00
48328;DHT22;34136;51.022;7.082;2024-03-23T05:50:47;6.90;1.00
48328;DHT22;34136;51.022;7.082;2024-03-23T05:53:33;6.80;1.00
48328;DHT22;34136;51.022;7.082;2024-03-23T05:56:19;6.70;1.00
48328;DHT22;34136;51.022;7.082;2024-03-23T05:59:05;6.80;1.00
48328;DHT22;34136;51.022;7.082;2024-03-23T06:01:51;6.90;1.00
48328;DHT22;34136;51.022;7.082;2024-03-23T06:04:37;6.90;1.00
48328;DHT22;34136;51.022;7.082;2024-03-23T06:07:23;6.90;1.00
48328;DHT22;34136;51.022;7.082;2024-03-23T06:10:09;6.90;1.00
48328;DHT22;34136;51.022;7.082;2024-03-23T06:12:55;7.00;1.00
48328;DHT22;34136;51.022;7.082;2024-03-23T06:15:41;6.90;1.00
48328;DHT22;34136;51.022;7.082;2024-03-23T06:18:28;6.90;1.00
48328;DHT22;34136;51.022;7.082;2024-03-23T06:21:14;7.00;1.00
48328;DHT22;34136;51.022;7.082;2024-03-23T06:24:00;6.90;1.00
48328;DHT22;34136;51.022;7.082;2024-03-23T06:26:46;6.90;1.00
48328;DHT22;34136;51.022;7.082;2024-03-23T06:29:32;7.00;1.00
48328;DHT22;34136;51.022;7.082;2024-03-23T06:32:18;7.00;1.00
48328;DHT22;34136;51.022;7.082;2024-03-23T06:35:04;7.10;1.00
48328;DHT22;34136;51.022;7.082;2024-03-23T06:37:50;7.10;1.00
48328;DHT22;34136;51.022;7.082;2024-03-23T06:40:36;7.10;1.00
48328;DHT22;34136;51.022;7.082;2024-03-23T06:43:22;7.10;1.00
48328;DHT22;34136;51.022;7.082;2024-03-23T06:46:08;7.10;1.00
48328;DHT22;34136;51.022;7.082;2024-03-23T06:48:54;7.10;1.00
48328;DHT22;34136;51.022;7.082;2024-03-23T06:51:40;7.10;1.00
48328;DHT22;34136;51.022;7.082;2024-03-23T06:54:27;7.00;1.00
48328;DHT22;34136;51.022;7.082;2024-03-23T06:57:12;7.00;1.00
48328;DHT22;34136;51.022;7.082;2024-03-23T06:59:58;7.00;1.00
48328;DHT22;34136;51.022;7.082;2024-03-23T07:02:45;7.00;1.00
48328;DHT22;34136;51.022;7.082;2024-03-23T07:05:30;7.00;1.00
48328;DHT22;34136;51.022;7.082;2024-03-23T07:08:17;7.10;1.00
48328;DHT22;34136;51.022;7.082;2024-03-23T07:11:03;7.30;1.00
48328;DHT22;34136;51.022;7.082;2024-03-23T07:13:49;7.40;1.00
48328;DHT22;34136;51.022;7.082;2024-03-23T07:16:35;7.50;1.00
48328;DHT22;34136;51.022;7.082;2024-03-23T07:19:21;7.50;1.00
48328;DHT22;34136;51.022;7.082;2024-03-23T07:22:08;7.40;1.00
48328;DHT22;34136;51.022;7.082;2024-03-23T07:24:54;7.50;1.00
48328;DHT22;34136;51.022;7.082;2024-03-23T07:27:40;7.70;1.00
48328;DHT22;34136;51.022;7.082;2024-03-23T07:30:26;7.80;1.00
48328;DHT22;34136;51.022;7.082;2024-03-23T07:33:12;7.70;1.00
48328;DHT22;34136;51.022;7.082;2024-03-23T07:35:58;7.70;1.00
48328;DHT22;34136;51.022;7.082;2024-03-23T07:38:44;7.80;1.00
48328;DHT22;34136;51.022;7.082;2024-03-23T07:41:30;7.90;1.00
48328;DHT22;34136;51.022;7.082;2024-03-23T07:44:17;8.00;1.00
48328;DHT22;34136;51.022;7.082;2024-03-23T07:47:03;8.00;1.00
48328;DHT22;34136;51.022;7.082;2024-03-23T07:49:49;8.10;1.00
48328;DHT22;34136;51.022;7.082;2024-03-23T07:52:35;8.20;1.00
48328;DHT22;34136;51.022;7.082;2024-03-23T07:55:21;8.20;1.00
48328;DHT22;34136;51.022;7.082;2024-03-23T07:58:07;8.10;1.00
48328;DHT22;34136;51.022;7.082;2024-03-23T08:00:54;8.20;1.00
48328;DHT22;34136;51.022;7.082;2024-03-23T08:03:41;8.30;1.00
48328;DHT22;34136;51.022;7.082;2024-03-23T08:06:27;8.40;1.00
48328;DHT22;34136;51.022;7.082;2024-03-23T08:09:13;8.40;1.00
48328;DHT22;34136;51.022;7.082;2024-03-23T08:11:59;8.30;1.00
48328;DHT22;34136;51.022;7.082;2024-03-23T08:14:45;8.30;1.00
48328;DHT22;34136;51.022;7.082;2024-03-23T08:17:31;8.40;1.00
48328;DHT22;34136;51.022;7.082;2024-03-23T08:20:17;8.40;1.00
48328;DHT22;34136;51.022;7.082;2024-03-23T08:23:04;8.50;1.40
48328;DHT22;34136;51.022;7.082;2024-03-23T08:25:51;8.40;99.90
48328;DHT22;34136;51.022;7.082;2024-03-23T08:28:37;8.60;99.90
48328;DHT22;34136;51.022;7.082;2024-03-23T08:31:23;8.80;99.90
48328;DHT22;34136;51.022;7.082;2024-03-23T08:34:09;8.80;99.90
48328;DHT22;34136;51.022;7.082;2024-03-23T08:36:55;8.70;99.90
48328;DHT22;34136;51.022;7.082;2024-03-23T08:39:44;8.80;99.90
48328;DHT22;34136;51.022;7.082;2024-03-23T08:42:30;9.00;99.90
48328;DHT22;34136;51.022;7.082;2024-03-23T08:45:16;9.00;99.90
48328;DHT22;34136;51.022;7.082;2024-03-23T08:48:06;8.90;99.90
48328;DHT22;34136;51.022;7.082;2024-03-23T08:51:25;9.00;99.90
48328;DHT22;34136;51.022;7.082;2024-03-23T08:54:05;9.00;99.90
48328;DHT22;34136;51.022;7.082;2024-03-23T08:56:51;9.00;99.90
48328;DHT22;34136;51.022;7.082;2024-03-23T08:59:37;9.10;99.90
48328;DHT22;34136;51.022;7.082;2024-03-23T09:02:23;9.10;99.90
48328;DHT22;34136;51.022;7.082;2024-03-23T09:05:09;9.10;99.90
48328;DHT22;34136;51.022;7.082;2024-03-23T09:07:55;9.10;99.90
48328;DHT22;34136;51.022;7.082;2024-03-23T09:10:42;9.10;99.90
48328;DHT22;34136;51.022;7.082;2024-03-23T09:13:28;9.20;99.90
48328;DHT22;34136;51.022;7.082;2024-03-23T09:16:14;9.10;99.90
48328;DHT22;34136;51.022;7.082;2024-03-23T09:19:00;9.10;99.90
48328;DHT22;34136;51.022;7.082;2024-03-23T09:21:46;9.00;99.90
48328;DHT22;34136;51.022;7.082;2024-03-23T09:24:32;8.90;99.90
48328;DHT22;34136;51.022;7.082;2024-03-23T09:27:18;8.80;99.90
48328;DHT22;34136;51.022;7.082;2024-03-23T09:30:05;8.90;99.90
48328;DHT22;34136;51.022;7.082;2024-03-23T09:32:51;8.90;99.90
48328;DHT22;34136;51.022;7.082;2024-03-23T09:35:41;9.10;99.90
48328;DHT22;34136;51.022;7.082;2024-03-23T09:38:27;9.10;99.90
48328;DHT22;34136;51.022;7.082;2024-03-23T09:41:13;9.40;99.90
48328;DHT22;34136;51.022;7.082;2024-03-23T09:43:59;9.80;99.90
48328;DHT22;34136;51.022;7.082;2024-03-23T09:46:45;9.80;99.90
48328;DHT22;34136;51.022;7.082;2024-03-23T09:49:32;9.80;99.90
48328;DHT22;34136;51.022;7.082;2024-03-23T09:52:18;9.70;99.90
48328;DHT22;34136;51.022;7.082;2024-03-23T09:55:05;9.60;99.90
48328;DHT22;34136;51.022;7.082;2024-03-23T09:57:51;9.50;99.90
48328;DHT22;34136;51.022;7.082;2024-03-23T10:00:37;9.40;99.90
48328;DHT22;34136;51.022;7.082;2024-03-23T10:03:23;9.30;99.90
48328;DHT22;34136;51.022;7.082;2024-03-23T10:06:09;9.30;99.90
48328;DHT22;34136;51.022;7.082;2024-03-23T10:08:55;9.50;99.90
48328;DHT22;34136;51.022;7.082;2024-03-23T10:11:41;9.70;99.90
48328;DHT22;34136;51.022;7.082;2024-03-23T10:14:30;9.70;99.90
48328;DHT22;34136;51.022;7.082;2024-03-23T10:17:21;9.70;99.90
48328;DHT22;34136;51.022;7.082;2024-03-23T10:20:09;9.80;99.90
48328;DHT22;34136;51.022;7.082;2024-03-23T10:22:55;9.80;99.90
48328;DHT22;34136;51.022;7.082;2024-03-23T10:25:41;10.10;99.90
48328;DHT22;34136;51.022;7.082;2024-03-23T10:28:27;10.50;99.90
48328;DHT22;34136;51.022;7.082;2024-03-23T10:31:14;10.50;99.90
48328;DHT22;34136;51.022;7.082;2024-03-23T10:34:00;10.60;99.90
48328;DHT22;34136;51.022;7.082;2024-03-23T10:36:46;10.70;99.90
48328;DHT22;34136;51.022;7.082;2024-03-23T10:39:36;10.90;99.90
48328;DHT22;34136;51.022;7.082;2024-03-23T10:42:22;11.20;99.90
48328;DHT22;34136;51.022;7.082;2024-03-23T10:45:08;11.00;99.90
48328;DHT22;34136;51.022;7.082;2024-03-23T10:47:55;10.90;99.90
48328;DHT22;34136;51.022;7.082;2024-03-23T10:50:41;10.40;99.90
48328;DHT22;34136;51.022;7.082;2024-03-23T10:53:27;9.90;99.90
48328;DHT22;34136;51.022;7.082;2024-03-23T10:56:14;9.40;99.90
48328;DHT22;34136;51.022;7.082;2024-03-23T10:59:01;8.90;99.90
48328;DHT22;34136;51.022;7.082;2024-03-23T11:01:57;8.80;99.90
48328;DHT22;34136;51.022;7.082;2024-03-23T11:04:43;8.80;99.90
48328;DHT22;34136;51.022;7.082;2024-03-23T11:07:30;8.50;99.90
48328;DHT22;34136;51.022;7.082;2024-03-23T11:10:26;8.50;99.90
48328;DHT22;34136;51.022;7.082;2024-03-23T11:13:22;8.50;99.90
48328;DHT22;34136;51.022;7.082;2024-03-23T11:16:15;8.20;99.90
48328;DHT22;34136;51.022;7.082;2024-03-23T11:22:06;8.00;99.90
48328;DHT22;34136;51.022;7.082;2024-03-23T11:24:52;7.90;99.90
48328;DHT22;34136;51.022;7.082;2024-03-23T11:27:38;7.70;99.90
48328;DHT22;34136;51.022;7.082;2024-03-23T11:30:24;7.60;99.90
48328;DHT22;34136;51.022;7.082;2024-03-23T11:33:11;7.60;99.90
48328;DHT22;34136;51.022;7.082;2024-03-23T11:35:58;7.50;99.90
48328;DHT22;34136;51.022;7.082;2024-03-23T11:38:44;7.30;99.90
48328;DHT22;34136;51.022;7.082;2024-03-23T11:41:30;7.30;99.90
48328;DHT22;34136;51.022;7.082;2024-03-23T11:44:20;7.30;99.90
48328;DHT22;34136;51.022;7.082;2024-03-23T11:47:07;7.40;99.90
48328;DHT22;34136;51.022;7.082;2024-03-23T11:49:54;7.70;99.90
48328;DHT22;34136;51.022;7.082;2024-03-23T11:52:40;7.90;99.90
48328;DHT22;34136;51.022;7.082;2024-03-23T11:55:26;7.90;99.90
48328;DHT22;34136;51.022;7.082;2024-03-23T11:58:12;8.10;99.90
48328;DHT22;34136;51.022;7.082;2024-03-23T12:00:59;8.40;99.90
48328;DHT22;34136;51.022;7.082;2024-03-23T12:03:45;8.60;99.90
48328;DHT22;34136;51.022;7.082;2024-03-23T12:06:31;8.50;99.90
48328;DHT22;34136;51.022;7.082;2024-03-23T12:09:17;8.60;99.90
48328;DHT22;34136;51.022;7.082;2024-03-23T12:17:48;8.30;99.90
48328;DHT22;34136;51.022;7.082;2024-03-23T12:20:34;8.40;99.90
48328;DHT22;34136;51.022;7.082;2024-03-23T12:23:20;8.50;99.90
48328;DHT22;34136;51.022;7.082;2024-03-23T12:26:06;8.60;99.90
48328;DHT22;34136;51.022;7.082;2024-03-23T12:28:52;8.80;99.90
48328;DHT22;34136;51.022;7.082;2024-03-23T12:31:39;8.90;99.90
48328;DHT22;34136;51.022;7.082;2024-03-23T12:34:24;8.60;99.90
48328;DHT22;34136;51.022;7.082;2024-03-23T12:37:10;8.40;99.90
48328;DHT22;34136;51.022;7.082;2024-03-23T12:39:56;8.50;99.90
48328;DHT22;34136;51.022;7.082;2024-03-23T12:42:43;8.40;99.90
48328;DHT22;34136;51.022;7.082;2024-03-23T12:45:29;8.30;99.90
48328;DHT22;34136;51.022;7.082;2024-03-23T12:48:15;8.00;99.90
48328;DHT22;34136;51.022;7.082;2024-03-23T12:51:01;7.70;99.90
48328;DHT22;34136;51.022;7.082;2024-03-23T12:53:47;7.50;99.90
48328;DHT22;34136;51.022;7.082;2024-03-23T12:56:33;6.90;99.90
48328;DHT22;34136;51.022;7.082;2024-03-23T12:59:19;6.70;99.90
48328;DHT22;34136;51.022;7.082;2024-03-23T13:02:05;6.50;99.90
48328;DHT22;34136;51.022;7.082;2024-03-23T13:04:52;6.60;99.90
48328;DHT22;34136;51.022;7.082;2024-03-23T13:07:38;6.70;99.90
48328;DHT22;34136;51.022;7.082;2024-03-23T13:10:24;7.00;99.90
48328;DHT22;34136;51.022;7.082;2024-03-23T13:13:10;7.30;99.90
48328;DHT22;34136;51.022;7.082;2024-03-23T13:15:56;7.60;99.90
48328;DHT22;34136;51.022;7.082;2024-03-23T13:18:42;7.80;99.90
48328;DHT22;34136;51.022;7.082;2024-03-23T13:21:28;8.00;99.90
48328;DHT22;34136;51.022;7.082;2024-03-23T13:24:14;8.10;99.90
48328;DHT22;34136;51.022;7.082;2024-03-23T13:27:00;8.40;99.90
48328;DHT22;34136;51.022;7.082;2024-03-23T13:29:46;8.60;99.90
48328;DHT22;34136;51.022;7.082;2024-03-23T13:32:33;8.40;99.90
48328;DHT22;34136;51.022;7.082;2024-03-23T13:35:19;8.30;99.90
48328;DHT22;34136;51.022;7.082;2024-03-23T13:38:05;8.40;99.90
48328;DHT22;34136;51.022;7.082;2024-03-23T13:40:51;8.50;99.90
48328;DHT22;34136;51.022;7.082;2024-03-23T13:43:38;8.80;99.90
48328;DHT22;34136;51.022;7.082;2024-03-23T13:46:24;8.90;99.90
48328;DHT22;34136;51.022;7.082;2024-03-23T13:49:26;8.90;99.90
48328;DHT22;34136;51.022;7.082;2024-03-23T13:52:12;9.00;99.90
48328;DHT22;34136;51.022;7.082;2024-03-23T13:54:58;9.10;99.90
48328;DHT22;34136;51.022;7.082;2024-03-23T13:57:44;9.10;99.90
48328;DHT22;34136;51.022;7.082;2024-03-23T14:00:30;9.10;99.90
48328;DHT22;34136;51.022;7.082;2024-03-23T14:03:16;9.20;99.90
48328;DHT22;34136;51.022;7.082;2024-03-23T14:06:03;9.40;99.90
48328;DHT22;34136;51.022;7.082;2024-03-23T14:08:49;9.30;99.90
48328;DHT22;34136;51.022;7.082;2024-03-23T14:11:35;9.20;99.90
48328;DHT22;34136;51.022;7.082;2024-03-23T14:14:21;9.00;99.90
48328;DHT22;34136;51.022;7.082;2024-03-23T14:17:07;8.80;99.90
48328;DHT22;34136;51.022;7.082;2024-03-23T14:19:53;8.70;99.90
48328;DHT22;34136;51.022;7.082;2024-03-23T14:22:41;8.70;99.90
48328;DHT22;34136;51.022;7.082;2024-03-23T14:25:27;8.80;99.90
48328;DHT22;34136;51.022;7.082;2024-03-23T14:28:13;8.70;99.90
48328;DHT22;34136;51.022;7.082;2024-03-23T14:30:59;8.90;99.90
48328;DHT22;34136;51.022;7.082;2024-03-23T14:33:45;9.10;99.90
48328;DHT22;34136;51.022;7.082;2024-03-23T14:36:31;9.20;99.90
48328;DHT22;34136;51.022;7.082;2024-03-23T14:39:17;9.20;99.90
48328;DHT22;34136;51.022;7.082;2024-03-23T14:42:03;9.20;99.90
48328;DHT22;34136;51.022;7.082;2024-03-23T14:44:50;9.30;99.90
48328;DHT22;34136;51.022;7.082;2024-03-23T14:47:36;9.30;99.90
48328;DHT22;34136;51.022;7.082;2024-03-23T14:50:22;9.50;99.90
48328;DHT22;34136;51.022;7.082;2024-03-23T14:53:08;9.40;99.90
48328;DHT22;34136;51.022;7.082;2024-03-23T14:55:55;9.30;99.90
48328;DHT22;34136;51.022;7.082;2024-03-23T14:58:41;9.20;99.90
48328;DHT22;34136;51.022;7.082;2024-03-23T15:01:27;9.10;99.90
48328;DHT22;34136;51.022;7.082;2024-03-23T15:04:13;8.90;99.90
48328;DHT22;34136;51.022;7.082;2024-03-23T15:06:59;8.80;99.90
48328;DHT22;34136;51.022;7.082;2024-03-23T15:09:45;8.70;99.90
48328;DHT22;34136;51.022;7.082;2024-03-23T15:12:31;8.50;99.90
48328;DHT22;34136;51.022;7.082;2024-03-23T15:15:17;8.50;99.90
48328;DHT22;34136;51.022;7.082;2024-03-23T15:18:03;8.40;99.90
48328;DHT22;34136;51.022;7.082;2024-03-23T15:20:52;8.40;99.90
48328;DHT22;34136;51.022;7.082;2024-03-23T15:27:21;8.30;99.90
48328;DHT22;34136;51.022;7.082;2024-03-23T15:30:08;8.40;99.90
48328;DHT22;34136;51.022;7.082;2024-03-23T15:32:54;8.60;99.90
48328;DHT22;34136;51.022;7.082;2024-03-23T15:35:40;8.70;99.90
48328;DHT22;34136;51.022;7.082;2024-03-23T15:38:26;8.90;99.90
48328;DHT22;34136;51.022;7.082;2024-03-23T15:41:12;9.00;99.90
48328;DHT22;34136;51.022;7.082;2024-03-23T15:43:58;9.00;99.90
48328;DHT22;34136;51.022;7.082;2024-03-23T15:46:45;9.00;99.90
48328;DHT22;34136;51.022;7.082;2024-03-23T15:49:31;9.10;99.90
48328;DHT22;34136;51.022;7.082;2024-03-23T15:52:17;9.00;99.90
48328;DHT22;34136;51.022;7.082;2024-03-23T15:55:03;9.00;99.90
48328;DHT22;34136;51.022;7.082;2024-03-23T15:57:49;8.80;99.90
48328;DHT22;34136;51.022;7.082;2024-03-23T16:00:35;8.70;99.90
48328;DHT22;34136;51.022;7.082;2024-03-23T16:03:22;8.60;99.90
48328;DHT22;34136;51.022;7.082;2024-03-23T16:06:08;8.70;99.90
48328;DHT22;34136;51.022;7.082;2024-03-23T16:08:54;8.50;99.90
48328;DHT22;34136;51.022;7.082;2024-03-23T16:11:40;8.30;99.90
48328;DHT22;34136;51.022;7.082;2024-03-23T16:14:26;8.10;99.90
48328;DHT22;34136;51.022;7.082;2024-03-23T16:17:12;8.00;99.90
48328;DHT22;34136;51.022;7.082;2024-03-23T16:19:58;8.00;99.90
48328;DHT22;34136;51.022;7.082;2024-03-23T16:22:45;8.10;99.90
48328;DHT22;34136;51.022;7.082;2024-03-23T16:25:31;8.10;99.90
48328;DHT22;34136;51.022;7.082;2024-03-23T16:28:17;7.90;99.90
48328;DHT22;34136;51.022;7.082;2024-03-23T16:31:04;8.00;99.90
48328;DHT22;34136;51.022;7.082;2024-03-23T16:33:50;7.90;99.90
48328;DHT22;34136;51.022;7.082;2024-03-23T16:36:36;8.00;99.90
48328;DHT22;34136;51.022;7.082;2024-03-23T16:39:22;8.00;99.90
48328;DHT22;34136;51.022;7.082;2024-03-23T16:42:08;8.10;99.90
48328;DHT22;34136;51.022;7.082;2024-03-23T16:45:03;8.20;99.90
48328;DHT22;34136;51.022;7.082;2024-03-23T16:48:18;8.30;99.90
48328;DHT22;34136;51.022;7.082;2024-03-23T16:51:05;8.00;99.90
48328;DHT22;34136;51.022;7.082;2024-03-23T16:53:51;7.90;99.90
48328;DHT22;34136;51.022;7.082;2024-03-23T16:56:37;7.90;99.90
48328;DHT22;34136;51.022;7.082;2024-03-23T16:59:23;7.70;99.90
48328;DHT22;34136;51.022;7.082;2024-03-23T17:02:09;7.70;99.90
48328;DHT22;34136;51.022;7.082;2024-03-23T17:04:55;7.70;99.90
48328;DHT22;34136;51.022;7.082;2024-03-23T17:07:41;7.50;99.90
48328;DHT22;34136;51.022;7.082;2024-03-23T17:10:28;7.60;99.90
48328;DHT22;34136;51.022;7.082;2024-03-23T17:13:14;7.60;99.90
48328;DHT22;34136;51.022;7.082;2024-03-23T17:16:00;7.60;99.90
48328;DHT22;34136;51.022;7.082;2024-03-23T17:18:46;7.40;99.90
48328;DHT22;34136;51.022;7.082;2024-03-23T17:21:32;7.30;99.90
48328;DHT22;34136;51.022;7.082;2024-03-23T17:24:18;7.20;99.90
48328;DHT22;34136;51.022;7.082;2024-03-23T17:27:04;7.10;99.90
48328;DHT22;34136;51.022;7.082;2024-03-23T17:29:50;7.00;99.90
48328;DHT22;34136;51.022;7.082;2024-03-23T17:32:36;6.90;99.90
48328;DHT22;34136;51.022;7.082;2024-03-23T17:35:23;7.10;99.90
48328;DHT22;34136;51.022;7.082;2024-03-23T17:38:12;7.10;99.90
48328;DHT22;34136;51.022;7.082;2024-03-23T17:40:58;7.10;99.90
48328;DHT22;34136;51.022;7.082;2024-03-23T17:43:44;7.10;99.90
48328;DHT22;34136;51.022;7.082;2024-03-23T17:46:30;7.20;99.90
48328;DHT22;34136;51.022;7.082;2024-03-23T17:49:16;7.30;99.90
48328;DHT22;34136;51.022;7.082;2024-03-23T17:52:09;7.30;99.90
48328;DHT22;34136;51.022;7.082;2024-03-23T17:54:55;7.30;99.90
48328;DHT22;34136;51.022;7.082;2024-03-23T17:57:41;7.40;99.90
48328;DHT22;34136;51.022;7.082;2024-03-23T18:00:27;7.30;99.90
48328;DHT22;34136;51.022;7.082;2024-03-23T18:03:13;7.10;99.90
48328;DHT22;34136;51.022;7.082;2024-03-23T18:05:59;7.00;99.90
48328;DHT22;34136;51.022;7.082;2024-03-23T18:08:45;7.10;99.90
48328;DHT22;34136;51.022;7.082;2024-03-23T18:11:31;7.10;99.90
48328;DHT22;34136;51.022;7.082;2024-03-23T18:14:17;7.10;99.90
48328;DHT22;34136;51.022;7.082;2024-03-23T18:17:04;7.10;99.90
48328;DHT22;34136;51.022;7.082;2024-03-23T18:19:50;6.90;99.90
48328;DHT22;34136;51.022;7.082;2024-03-23T18:22:36;6.90;99.90
48328;DHT22;34136;51.022;7.082;2024-03-23T18:25:22;6.80;99.90
48328;DHT22;34136;51.022;7.082;2024-03-23T18:28:08;6.70;99.90
48328;DHT22;34136;51.022;7.082;2024-03-23T18:31:00;6.70;99.90
48328;DHT22;34136;51.022;7.082;2024-03-23T18:33:47;6.70;99.90
48328;DHT22;34136;51.022;7.082;2024-03-23T18:36:33;6.70;99.90
48328;DHT22;34136;51.022;7.082;2024-03-23T18:39:20;6.80;99.90
48328;DHT22;34136;51.022;7.082;2024-03-23T18:42:06;6.80;99.90
48328;DHT22;34136;51.022;7.082;2024-03-23T18:44:52;6.80;99.90
48328;DHT22;34136;51.022;7.082;2024-03-23T18:47:38;6.80;99.90
48328;DHT22;34136;51.022;7.082;2024-03-23T18:50:24;6.60;99.90
48328;DHT22;34136;51.022;7.082;2024-03-23T18:53:10;6.50;99.90
48328;DHT22;34136;51.022;7.082;2024-03-23T18:55:56;6.50;99.90
48328;DHT22;34136;51.022;7.082;2024-03-23T18:58:45;6.40;99.90
48328;DHT22;34136;51.022;7.082;2024-03-23T19:01:31;6.40;99.90